sensor_id;sensor_type;location;lat;lon;timestamp;pressure;altitude;pressure_sealevel;temperature;humidity
50384;BME280;36301;48.310;12.786;2023-07-08T03:00:44;96464.81;;;15.30;78.77
50384;BME280;36301;48.310;12.786;2023-07-08T03:03:11;96474.38;;;15.31;78.79
50384;BME280;36301;48.310;12.786;2023-07-08T03:05:37;96487.31;;;15.33;79.05
50384;BME280;36301;48.310;12.786;2023-07-08T03:08:04;96470.19;;;15.27;78.30
50384;BME280;36301;48.310;12.786;2023-07-08T03:10:30;96475.88;;;15.36;77.98
50384;BME280;36301;48.310;12.786;2023-07-08T03:12:57;96484.25;;;15.42;77.80
50384;BME280;36301;48.310;12.786;2023-07-08T03:15:23;96480.44;;;15.39;78.89
50384;BME280;36301;48.310;12.786;2023-07-08T03:17:50;96469.41;;;15.30;79.65
50384;BME280;36301;48.310;12.786;2023-07-08T03:20:17;96470.13;;;15.45;78.08
50384;BME280;36301;48.310;12.786;2023-07-08T03:22:43;96444.63;;;15.29;77.76
50384;BME280;36301;48.310;12.786;2023-07-08T03:25:10;96465.19;;;15.40;78.41
50384;BME280;36301;48.310;12.786;2023-07-08T03:27:37;96468.22;;;15.45;77.42
50384;BME280;36301;48.310;12.786;2023-07-08T03:30:03;96470.50;;;15.57;76.84
50384;BME280;36301;48.310;12.786;2023-07-08T03:32:31;96460.59;;;15.62;77.44
50384;BME280;36301;48.310;12.786;2023-07-08T03:34:58;96449.19;;;15.47;78.06
50384;BME280;36301;48.310;12.786;2023-07-08T03:37:25;96457.16;;;15.50;79.17
50384;BME280;36301;48.310;12.786;2023-07-08T03:39:51;96470.88;;;15.56;78.43
50384;BME280;36301;48.310;12.786;2023-07-08T03:42:18;96464.41;;;15.64;79.01
50384;BME280;36301;48.310;12.786;2023-07-08T03:44:44;96472.78;;;15.70;80.91
50384;BME280;36301;48.310;12.786;2023-07-08T03:47:11;96463.22;;;15.76;79.46
50384;BME280;36301;48.310;12.786;2023-07-08T03:49:37;96469.31;;;15.87;79.30
50384;BME280;36301;48.310;12.786;2023-07-08T03:52:04;96466.28;;;15.81;79.74
50384;BME280;36301;48.310;12.786;2023-07-08T03:54:31;96471.19;;;15.90;78.67
50384;BME280;36301;48.310;12.786;2023-07-08T03:56:58;96454.00;;;15.98;76.90
50384;BME280;36301;48.310;12.786;2023-07-08T03:59:24;96462.72;;;16.09;77.03
50384;BME280;36301;48.310;12.786;2023-07-08T04:01:51;96476.75;;;16.28;76.30
50384;BME280;36301;48.310;12.786;2023-07-08T04:04:17;96476.31;;;16.37;75.49
50384;BME280;36301;48.310;12.786;2023-07-08T04:06:44;96473.94;;;16.49;76.02
50384;BME280;36301;48.310;12.786;2023-07-08T04:09:12;96471.63;;;16.51;76.72
50384;BME280;36301;48.310;12.786;2023-07-08T04:11:38;96459.34;;;16.61;77.06
50384;BME280;36301;48.310;12.786;2023-07-08T04:14:05;96460.06;;;16.72;76.57
50384;BME280;36301;48.310;12.786;2023-07-08T04:16:56;96456.13;;;16.91;75.73
50384;BME280;36301;48.310;12.786;2023-07-08T04:19:25;96466.69;;;17.09;74.24
50384;BME280;36301;48.310;12.786;2023-07-08T04:21:53;96458.69;;;17.05;74.31
50384;BME280;36301;48.310;12.786;2023-07-08T04:24:20;96465.84;;;17.19;75.50
50384;BME280;36301;48.310;12.786;2023-07-08T04:26:47;96456.41;;;17.45;74.49
50384;BME280;36301;48.310;12.786;2023-07-08T04:29:17;96469.19;;;18.02;70.17
50384;BME280;36301;48.310;12.786;2023-07-08T04:31:44;96460.56;;;18.76;67.78
50384;BME280;36301;48.310;12.786;2023-07-08T04:34:11;96459.31;;;18.53;69.16
50384;BME280;36301;48.310;12.786;2023-07-08T04:36:38;96474.06;;;18.65;68.60
50384;BME280;36301;48.310;12.786;2023-07-08T04:39:06;96448.69;;;18.46;70.07
50384;BME280;36301;48.310;12.786;2023-07-08T04:41:33;96470.78;;;18.27;71.89
50384;BME280;36301;48.310;12.786;2023-07-08T04:44:00;96469.59;;;18.01;70.41
50384;BME280;36301;48.310;12.786;2023-07-08T04:46:40;96461.38;;;17.84;71.73
50384;BME280;36301;48.310;12.786;2023-07-08T04:49:08;96477.16;;;17.75;76.56
50384;BME280;36301;48.310;12.786;2023-07-08T04:51:38;96486.25;;;17.81;75.90
50384;BME280;36301;48.310;12.786;2023-07-08T04:54:05;96486.47;;;17.98;73.66
50384;BME280;36301;48.310;12.786;2023-07-08T04:56:43;96477.22;;;18.02;70.99
50384;BME280;36301;48.310;12.786;2023-07-08T04:59:12;96484.16;;;18.00;72.69
50384;BME280;36301;48.310;12.786;2023-07-08T05:01:40;96489.59;;;18.23;73.10
50384;BME280;36301;48.310;12.786;2023-07-08T05:04:08;96483.88;;;18.79;69.86
50384;BME280;36301;48.310;12.786;2023-07-08T05:06:36;96484.56;;;19.96;63.14
50384;BME280;36301;48.310;12.786;2023-07-08T05:09:03;96487.31;;;20.69;62.01
50384;BME280;36301;48.310;12.786;2023-07-08T05:11:31;96486.38;;;20.92;59.45
50384;BME280;36301;48.310;12.786;2023-07-08T05:13:57;96486.81;;;21.68;59.12
50384;BME280;36301;48.310;12.786;2023-07-08T05:16:24;96474.84;;;22.91;50.64
50384;BME280;36301;48.310;12.786;2023-07-08T05:18:51;96476.56;;;22.98;51.63
50384;BME280;36301;48.310;12.786;2023-07-08T05:21:19;96487.31;;;23.93;48.49
50384;BME280;36301;48.310;12.786;2023-07-08T05:23:48;96474.78;;;24.08;47.14
50384;BME280;36301;48.310;12.786;2023-07-08T05:26:18;96474.53;;;24.15;46.59
50384;BME280;36301;48.310;12.786;2023-07-08T05:28:45;96483.91;;;23.79;47.27
50384;BME280;36301;48.310;12.786;2023-07-08T05:31:11;96476.34;;;24.40;46.73
50384;BME280;36301;48.310;12.786;2023-07-08T05:33:38;96475.97;;;24.60;45.15
50384;BME280;36301;48.310;12.786;2023-07-08T05:36:05;96475.41;;;24.74;44.86
50384;BME280;36301;48.310;12.786;2023-07-08T05:38:31;96486.56;;;25.26;43.04
50384;BME280;36301;48.310;12.786;2023-07-08T05:40:58;96492.91;;;24.92;44.21
50384;BME280;36301;48.310;12.786;2023-07-08T05:43:26;96486.72;;;25.41;43.71
50384;BME280;36301;48.310;12.786;2023-07-08T05:45:58;96482.19;;;26.11;43.20
50384;BME280;36301;48.310;12.786;2023-07-08T05:48:37;96486.03;;;26.37;41.77
50384;BME280;36301;48.310;12.786;2023-07-08T05:51:04;96496.66;;;25.90;43.44
50384;BME280;36301;48.310;12.786;2023-07-08T05:53:31;96484.56;;;26.27;42.66
50384;BME280;36301;48.310;12.786;2023-07-08T05:55:57;96482.91;;;25.10;44.17
50384;BME280;36301;48.310;12.786;2023-07-08T05:58:24;96502.81;;;24.45;45.58
50384;BME280;36301;48.310;12.786;2023-07-08T06:00:56;96504.50;;;24.92;46.12
50384;BME280;36301;48.310;12.786;2023-07-08T06:03:24;96500.88;;;25.54;43.81
50384;BME280;36301;48.310;12.786;2023-07-08T06:05:52;96505.38;;;25.29;44.67
50384;BME280;36301;48.310;12.786;2023-07-08T06:08:19;96498.97;;;25.05;46.13
50384;BME280;36301;48.310;12.786;2023-07-08T06:10:46;96512.22;;;24.10;46.48
50384;BME280;36301;48.310;12.786;2023-07-08T06:13:13;96521.75;;;23.79;47.28
50384;BME280;36301;48.310;12.786;2023-07-08T06:15:41;96514.97;;;23.75;48.42
50384;BME280;36301;48.310;12.786;2023-07-08T06:18:08;96510.00;;;23.61;49.61
50384;BME280;36301;48.310;12.786;2023-07-08T06:20:34;96506.81;;;23.40;48.40
50384;BME280;36301;48.310;12.786;2023-07-08T06:23:01;96513.72;;;23.54;49.01
50384;BME280;36301;48.310;12.786;2023-07-08T06:25:27;96513.59;;;24.14;47.91
50384;BME280;36301;48.310;12.786;2023-07-08T06:27:54;96521.16;;;24.81;44.99
50384;BME280;36301;48.310;12.786;2023-07-08T06:30:21;96525.75;;;24.63;46.73
50384;BME280;36301;48.310;12.786;2023-07-08T06:32:47;96526.31;;;25.38;44.42
50384;BME280;36301;48.310;12.786;2023-07-08T06:35:14;96527.50;;;25.37;43.34
50384;BME280;36301;48.310;12.786;2023-07-08T06:37:41;96530.09;;;26.14;42.79
50384;BME280;36301;48.310;12.786;2023-07-08T06:40:09;96531.78;;;26.21;41.86
50384;BME280;36301;48.310;12.786;2023-07-08T06:42:37;96541.78;;;27.08;40.65
50384;BME280;36301;48.310;12.786;2023-07-08T06:45:05;96528.38;;;26.62;40.68
50384;BME280;36301;48.310;12.786;2023-07-08T06:47:33;96529.38;;;26.74;40.16
50384;BME280;36301;48.310;12.786;2023-07-08T06:50:00;96530.25;;;27.23;39.92
50384;BME280;36301;48.310;12.786;2023-07-08T06:52:26;96543.28;;;27.09;39.69
50384;BME280;36301;48.310;12.786;2023-07-08T06:54:53;96536.09;;;26.97;39.60
50384;BME280;36301;48.310;12.786;2023-07-08T06:57:19;96515.41;;;26.90;40.60
50384;BME280;36301;48.310;12.786;2023-07-08T06:59:46;96521.06;;;26.78;41.26
50384;BME280;36301;48.310;12.786;2023-07-08T07:02:12;96514.78;;;27.91;40.84
50384;BME280;36301;48.310;12.786;2023-07-08T07:04:40;96525.53;;;27.71;39.11
50384;BME280;36301;48.310;12.786;2023-07-08T07:07:06;96520.09;;;27.71;39.73
50384;BME280;36301;48.310;12.786;2023-07-08T07:09:33;96527.88;;;28.17;39.76
50384;BME280;36301;48.310;12.786;2023-07-08T07:11:59;96522.16;;;28.15;39.36
50384;BME280;36301;48.310;12.786;2023-07-08T07:14:26;96532.09;;;29.27;38.19
50384;BME280;36301;48.310;12.786;2023-07-08T07:16:55;96519.94;;;29.28;36.69
50384;BME280;36301;48.310;12.786;2023-07-08T07:19:25;96534.97;;;30.05;35.67
50384;BME280;36301;48.310;12.786;2023-07-08T07:21:52;96532.34;;;29.50;36.30
50384;BME280;36301;48.310;12.786;2023-07-08T07:24:18;96521.88;;;29.63;36.40
50384;BME280;36301;48.310;12.786;2023-07-08T07:26:45;96513.31;;;30.48;34.67
50384;BME280;36301;48.310;12.786;2023-07-08T07:29:16;96516.78;;;30.48;35.25
50384;BME280;36301;48.310;12.786;2023-07-08T07:31:43;96505.72;;;30.63;36.04
50384;BME280;36301;48.310;12.786;2023-07-08T07:34:10;96517.38;;;30.27;36.57
50384;BME280;36301;48.310;12.786;2023-07-08T07:36:38;96514.66;;;30.06;35.01
50384;BME280;36301;48.310;12.786;2023-07-08T07:39:05;96523.16;;;29.88;36.06
50384;BME280;36301;48.310;12.786;2023-07-08T07:41:31;96523.28;;;30.25;35.57
50384;BME280;36301;48.310;12.786;2023-07-08T07:43:58;96529.16;;;30.44;34.02
50384;BME280;36301;48.310;12.786;2023-07-08T07:46:24;96530.31;;;29.44;34.63
50384;BME280;36301;48.310;12.786;2023-07-08T07:48:51;96538.69;;;29.56;35.80
50384;BME280;36301;48.310;12.786;2023-07-08T07:51:18;96540.69;;;29.40;35.36
50384;BME280;36301;48.310;12.786;2023-07-08T07:53:44;96548.50;;;29.68;35.45
50384;BME280;36301;48.310;12.786;2023-07-08T07:56:11;96543.63;;;29.37;35.19
50384;BME280;36301;48.310;12.786;2023-07-08T07:58:38;96545.31;;;29.95;35.87
50384;BME280;36301;48.310;12.786;2023-07-08T08:01:04;96527.53;;;31.26;34.31
50384;BME280;36301;48.310;12.786;2023-07-08T08:03:33;96549.41;;;30.58;34.09
50384;BME280;36301;48.310;12.786;2023-07-08T08:05:59;96544.53;;;30.41;34.94
50384;BME280;36301;48.310;12.786;2023-07-08T08:08:27;96549.28;;;28.83;35.87
50384;BME280;36301;48.310;12.786;2023-07-08T08:10:53;96540.25;;;27.88;36.82
50384;BME280;36301;48.310;12.786;2023-07-08T08:13:20;96543.94;;;27.28;39.26
50384;BME280;36301;48.310;12.786;2023-07-08T08:15:47;96554.38;;;26.87;39.73
50384;BME280;36301;48.310;12.786;2023-07-08T08:18:13;96544.59;;;28.10;38.41
50384;BME280;36301;48.310;12.786;2023-07-08T08:20:40;96545.50;;;28.07;37.22
50384;BME280;36301;48.310;12.786;2023-07-08T08:23:07;96532.88;;;28.33;37.39
50384;BME280;36301;48.310;12.786;2023-07-08T08:25:34;96538.00;;;28.02;37.75
50384;BME280;36301;48.310;12.786;2023-07-08T08:28:01;96538.28;;;27.41;37.97
50384;BME280;36301;48.310;12.786;2023-07-08T08:30:27;96550.53;;;27.03;39.40
50384;BME280;36301;48.310;12.786;2023-07-08T08:32:54;96549.75;;;26.79;39.44
50384;BME280;36301;48.310;12.786;2023-07-08T08:35:20;96541.63;;;27.12;39.38
50384;BME280;36301;48.310;12.786;2023-07-08T08:37:47;96540.38;;;27.22;39.24
50384;BME280;36301;48.310;12.786;2023-07-08T08:40:16;96539.34;;;28.65;37.88
50384;BME280;36301;48.310;12.786;2023-07-08T08:42:53;96544.19;;;29.61;36.85
50384;BME280;36301;48.310;12.786;2023-07-08T08:45:24;96537.66;;;29.99;35.62
50384;BME280;36301;48.310;12.786;2023-07-08T08:47:59;96547.91;;;30.83;34.94
50384;BME280;36301;48.310;12.786;2023-07-08T08:53:01;96540.69;;;30.02;33.21
50384;BME280;36301;48.310;12.786;2023-07-08T08:55:30;96536.31;;;29.48;37.42
50384;BME280;36301;48.310;12.786;2023-07-08T09:01:07;96544.47;;;30.62;35.08
50384;BME280;36301;48.310;12.786;2023-07-08T09:06:15;96536.19;;;29.02;37.39
50384;BME280;36301;48.310;12.786;2023-07-08T09:08:42;96527.47;;;29.74;36.17
50384;BME280;36301;48.310;12.786;2023-07-08T09:14:03;96544.41;;;28.58;36.98
50384;BME280;36301;48.310;12.786;2023-07-08T09:16:43;96539.72;;;28.58;36.68
50384;BME280;36301;48.310;12.786;2023-07-08T09:19:14;96551.47;;;28.79;36.44
50384;BME280;36301;48.310;12.786;2023-07-08T09:22:06;96546.94;;;28.32;37.02
50384;BME280;36301;48.310;12.786;2023-07-08T09:24:56;96551.28;;;28.24;36.57
50384;BME280;36301;48.310;12.786;2023-07-08T09:27:25;96552.31;;;28.41;36.98
50384;BME280;36301;48.310;12.786;2023-07-08T09:29:52;96554.00;;;28.53;35.77
50384;BME280;36301;48.310;12.786;2023-07-08T09:32:21;96564.97;;;28.14;36.04
50384;BME280;36301;48.310;12.786;2023-07-08T09:34:55;96568.41;;;28.39;35.42
50384;BME280;36301;48.310;12.786;2023-07-08T09:37:29;96568.25;;;27.80;36.66
50384;BME280;36301;48.310;12.786;2023-07-08T09:39:58;96572.41;;;27.42;38.32
50384;BME280;36301;48.310;12.786;2023-07-08T09:42:28;96563.28;;;27.78;37.77
50384;BME280;36301;48.310;12.786;2023-07-08T09:45:00;96576.75;;;27.73;39.08
50384;BME280;36301;48.310;12.786;2023-07-08T09:47:33;96573.38;;;28.02;38.40
50384;BME280;36301;48.310;12.786;2023-07-08T09:50:00;96579.75;;;27.99;39.37
50384;BME280;36301;48.310;12.786;2023-07-08T09:52:30;96572.28;;;27.60;39.18
50384;BME280;36301;48.310;12.786;2023-07-08T09:54:57;96583.13;;;27.46;39.10
50384;BME280;36301;48.310;12.786;2023-07-08T09:57:28;96593.66;;;27.53;39.76
50384;BME280;36301;48.310;12.786;2023-07-08T10:00:02;96589.97;;;27.32;38.75
50384;BME280;36301;48.310;12.786;2023-07-08T10:04:58;96594.41;;;26.87;41.71
50384;BME280;36301;48.310;12.786;2023-07-08T10:07:28;96583.59;;;26.59;39.64
50384;BME280;36301;48.310;12.786;2023-07-08T10:09:58;96602.06;;;27.31;41.30
50384;BME280;36301;48.310;12.786;2023-07-08T10:12:25;96597.81;;;27.39;41.07
50384;BME280;36301;48.310;12.786;2023-07-08T10:15:00;96593.88;;;27.40;39.32
50384;BME280;36301;48.310;12.786;2023-07-08T10:17:29;96596.19;;;27.56;38.38
50384;BME280;36301;48.310;12.786;2023-07-08T10:19:56;96600.50;;;27.72;40.44
50384;BME280;36301;48.310;12.786;2023-07-08T10:23:04;96586.69;;;27.52;39.63
50384;BME280;36301;48.310;12.786;2023-07-08T10:25:51;96582.38;;;27.69;38.00
50384;BME280;36301;48.310;12.786;2023-07-08T10:31:14;96587.41;;;28.24;37.59
50384;BME280;36301;48.310;12.786;2023-07-08T10:36:23;96577.72;;;28.08;38.30
50384;BME280;36301;48.310;12.786;2023-07-08T10:52:41;96571.81;;;29.13;35.67
50384;BME280;36301;48.310;12.786;2023-07-08T10:55:37;96568.66;;;29.00;36.58
50384;BME280;36301;48.310;12.786;2023-07-08T11:01:23;96588.84;;;28.34;36.16
50384;BME280;36301;48.310;12.786;2023-07-08T11:06:37;96581.00;;;28.27;35.99
50384;BME280;36301;48.310;12.786;2023-07-08T11:09:17;96580.03;;;28.54;34.99
50384;BME280;36301;48.310;12.786;2023-07-08T11:14:46;96589.31;;;28.48;36.62
50384;BME280;36301;48.310;12.786;2023-07-08T11:17:24;96584.91;;;28.65;36.17
50384;BME280;36301;48.310;12.786;2023-07-08T11:20:10;96586.22;;;28.99;35.23
50384;BME280;36301;48.310;12.786;2023-07-08T11:22:47;96585.00;;;29.35;34.60
50384;BME280;36301;48.310;12.786;2023-07-08T11:25:20;96572.69;;;28.75;35.50
50384;BME280;36301;48.310;12.786;2023-07-08T11:27:52;96569.47;;;29.41;35.15
50384;BME280;36301;48.310;12.786;2023-07-08T11:30:22;96564.28;;;29.08;34.71
50384;BME280;36301;48.310;12.786;2023-07-08T11:33:01;96565.56;;;29.48;34.31
50384;BME280;36301;48.310;12.786;2023-07-08T11:35:35;96569.47;;;29.41;35.09
50384;BME280;36301;48.310;12.786;2023-07-08T11:38:04;96563.19;;;29.35;34.79
50384;BME280;36301;48.310;12.786;2023-07-08T11:40:31;96565.91;;;28.85;35.19
50384;BME280;36301;48.310;12.786;2023-07-08T11:43:05;96567.53;;;28.62;35.86
50384;BME280;36301;48.310;12.786;2023-07-08T11:45:37;96575.19;;;28.93;35.07
50384;BME280;36301;48.310;12.786;2023-07-08T11:48:22;96574.16;;;29.56;34.60
50384;BME280;36301;48.310;12.786;2023-07-08T11:50:51;96582.09;;;30.00;34.12
50384;BME280;36301;48.310;12.786;2023-07-08T11:58:50;96569.91;;;29.40;34.62
50384;BME280;36301;48.310;12.786;2023-07-08T12:01:32;96567.31;;;29.86;34.41
50384;BME280;36301;48.310;12.786;2023-07-08T12:04:20;96568.19;;;30.18;34.45
50384;BME280;36301;48.310;12.786;2023-07-08T12:07:02;96561.16;;;29.91;33.25
50384;BME280;36301;48.310;12.786;2023-07-08T12:09:36;96556.59;;;29.62;35.20
50384;BME280;36301;48.310;12.786;2023-07-08T12:12:07;96536.59;;;29.30;35.55
50384;BME280;36301;48.310;12.786;2023-07-08T12:14:40;96558.03;;;29.58;35.41
50384;BME280;36301;48.310;12.786;2023-07-08T12:17:12;96555.28;;;29.02;34.90
50384;BME280;36301;48.310;12.786;2023-07-08T12:19:39;96537.84;;;28.79;34.43
50384;BME280;36301;48.310;12.786;2023-07-08T12:22:10;96549.72;;;29.11;33.81
50384;BME280;36301;48.310;12.786;2023-07-08T12:24:40;96550.72;;;29.14;33.88
50384;BME280;36301;48.310;12.786;2023-07-08T12:27:09;96551.44;;;29.29;36.44
50384;BME280;36301;48.310;12.786;2023-07-08T12:29:37;96542.59;;;29.75;33.46
50384;BME280;36301;48.310;12.786;2023-07-08T12:32:04;96542.91;;;29.57;33.64
50384;BME280;36301;48.310;12.786;2023-07-08T12:34:33;96548.59;;;29.79;34.07
50384;BME280;36301;48.310;12.786;2023-07-08T12:37:00;96546.97;;;30.34;33.09
50384;BME280;36301;48.310;12.786;2023-07-08T12:39:32;96533.03;;;29.85;33.10
50384;BME280;36301;48.310;12.786;2023-07-08T12:42:00;96536.16;;;29.98;32.35
50384;BME280;36301;48.310;12.786;2023-07-08T12:44:26;96548.06;;;29.55;32.60
50384;BME280;36301;48.310;12.786;2023-07-08T12:46:54;96546.16;;;29.81;32.67
50384;BME280;36301;48.310;12.786;2023-07-08T12:49:22;96544.31;;;29.52;33.74
50384;BME280;36301;48.310;12.786;2023-07-08T12:51:53;96552.63;;;29.43;33.50
50384;BME280;36301;48.310;12.786;2023-07-08T12:54:20;96533.63;;;29.13;31.98
50384;BME280;36301;48.310;12.786;2023-07-08T12:56:49;96544.19;;;29.82;31.83
50384;BME280;36301;48.310;12.786;2023-07-08T12:59:19;96554.13;;;29.85;31.63
50384;BME280;36301;48.310;12.786;2023-07-08T13:01:48;96546.03;;;29.70;31.16
50384;BME280;36301;48.310;12.786;2023-07-08T13:04:18;96560.28;;;29.80;31.76
50384;BME280;36301;48.310;12.786;2023-07-08T13:06:46;96555.53;;;30.01;33.64
50384;BME280;36301;48.310;12.786;2023-07-08T13:09:32;96555.69;;;30.12;33.88
50384;BME280;36301;48.310;12.786;2023-07-08T13:12:06;96547.56;;;30.17;33.74
50384;BME280;36301;48.310;12.786;2023-07-08T13:14:38;96554.66;;;30.35;32.46
50384;BME280;36301;48.310;12.786;2023-07-08T13:17:12;96550.44;;;30.34;32.11
50384;BME280;36301;48.310;12.786;2023-07-08T13:19:41;96539.25;;;30.06;32.04
50384;BME280;36301;48.310;12.786;2023-07-08T13:22:14;96553.44;;;30.36;32.30
50384;BME280;36301;48.310;12.786;2023-07-08T13:24:43;96545.28;;;30.16;31.00
50384;BME280;36301;48.310;12.786;2023-07-08T13:27:24;96542.88;;;30.49;31.58
50384;BME280;36301;48.310;12.786;2023-07-08T13:29:56;96545.44;;;30.59;31.48
50384;BME280;36301;48.310;12.786;2023-07-08T13:32:31;96546.94;;;30.60;30.66
50384;BME280;36301;48.310;12.786;2023-07-08T13:34:58;96545.34;;;30.47;29.86
50384;BME280;36301;48.310;12.786;2023-07-08T13:37:25;96540.00;;;30.33;29.17
50384;BME280;36301;48.310;12.786;2023-07-08T13:39:53;96533.31;;;30.34;28.77
50384;BME280;36301;48.310;12.786;2023-07-08T13:42:22;96531.81;;;30.33;29.31
50384;BME280;36301;48.310;12.786;2023-07-08T13:44:49;96533.16;;;30.17;30.10
50384;BME280;36301;48.310;12.786;2023-07-08T13:47:27;96534.88;;;30.46;29.19
50384;BME280;36301;48.310;12.786;2023-07-08T13:50:05;96548.28;;;30.70;29.21
50384;BME280;36301;48.310;12.786;2023-07-08T13:52:34;96543.31;;;30.42;30.76
50384;BME280;36301;48.310;12.786;2023-07-08T13:55:06;96542.88;;;30.49;29.83
50384;BME280;36301;48.310;12.786;2023-07-08T13:57:38;96544.81;;;30.43;29.66
50384;BME280;36301;48.310;12.786;2023-07-08T14:00:06;96537.56;;;30.40;31.02
50384;BME280;36301;48.310;12.786;2023-07-08T14:02:36;96543.44;;;30.28;31.30
50384;BME280;36301;48.310;12.786;2023-07-08T14:05:09;96538.88;;;30.19;30.49
50384;BME280;36301;48.310;12.786;2023-07-08T14:07:37;96526.59;;;30.35;30.62
50384;BME280;36301;48.310;12.786;2023-07-08T14:10:13;96539.53;;;30.66;29.29
50384;BME280;36301;48.310;12.786;2023-07-08T14:12:40;96531.94;;;30.49;28.31
50384;BME280;36301;48.310;12.786;2023-07-08T14:15:08;96535.72;;;30.06;28.36
50384;BME280;36301;48.310;12.786;2023-07-08T14:17:36;96520.53;;;29.99;29.71
50384;BME280;36301;48.310;12.786;2023-07-08T14:20:15;96531.22;;;30.23;29.88
50384;BME280;36301;48.310;12.786;2023-07-08T14:22:42;96526.75;;;30.26;29.38
50384;BME280;36301;48.310;12.786;2023-07-08T14:25:10;96530.00;;;30.24;29.71
50384;BME280;36301;48.310;12.786;2023-07-08T14:27:37;96527.63;;;30.11;28.96
50384;BME280;36301;48.310;12.786;2023-07-08T14:30:09;96527.25;;;29.78;29.16
50384;BME280;36301;48.310;12.786;2023-07-08T14:32:36;96522.75;;;30.21;29.90
50384;BME280;36301;48.310;12.786;2023-07-08T14:35:29;96526.78;;;30.05;28.98
50384;BME280;36301;48.310;12.786;2023-07-08T14:37:56;96519.66;;;29.61;30.40
50384;BME280;36301;48.310;12.786;2023-07-08T14:40:26;96523.72;;;30.18;30.50
50384;BME280;36301;48.310;12.786;2023-07-08T14:43:02;96513.25;;;29.90;29.76
50384;BME280;36301;48.310;12.786;2023-07-08T14:45:33;96516.22;;;30.13;30.58
50384;BME280;36301;48.310;12.786;2023-07-08T14:48:00;96512.81;;;30.18;30.50
50384;BME280;36301;48.310;12.786;2023-07-08T14:50:27;96522.75;;;30.21;29.28
50384;BME280;36301;48.310;12.786;2023-07-08T14:52:56;96514.38;;;30.04;29.86
50384;BME280;36301;48.310;12.786;2023-07-08T14:55:23;96517.25;;;29.95;30.24
50384;BME280;36301;48.310;12.786;2023-07-08T14:57:50;96509.31;;;29.91;29.85
50384;BME280;36301;48.310;12.786;2023-07-08T15:00:18;96515.63;;;30.03;30.07
50384;BME280;36301;48.310;12.786;2023-07-08T15:02:47;96518.28;;;30.18;29.79
50384;BME280;36301;48.310;12.786;2023-07-08T15:05:23;96515.81;;;29.99;29.98
50384;BME280;36301;48.310;12.786;2023-07-08T15:07:52;96507.31;;;29.92;30.38
50384;BME280;36301;48.310;12.786;2023-07-08T15:10:22;96508.06;;;29.92;30.51
50384;BME280;36301;48.310;12.786;2023-07-08T15:12:51;96500.53;;;30.08;30.63
50384;BME280;36301;48.310;12.786;2023-07-08T15:15:27;96505.97;;;30.08;30.20
50384;BME280;36301;48.310;12.786;2023-07-08T15:17:59;96507.94;;;30.28;30.62
50384;BME280;36301;48.310;12.786;2023-07-08T15:20:26;96504.56;;;30.12;29.85
50384;BME280;36301;48.310;12.786;2023-07-08T15:22:53;96498.44;;;29.97;29.39
50384;BME280;36301;48.310;12.786;2023-07-08T15:25:20;96495.69;;;29.71;29.64
50384;BME280;36301;48.310;12.786;2023-07-08T15:27:49;96494.94;;;29.70;29.99
50384;BME280;36301;48.310;12.786;2023-07-08T15:30:27;96501.00;;;29.60;30.26
50384;BME280;36301;48.310;12.786;2023-07-08T15:32:54;96495.00;;;30.02;30.87
50384;BME280;36301;48.310;12.786;2023-07-08T15:35:25;96494.97;;;29.96;30.32
50384;BME280;36301;48.310;12.786;2023-07-08T15:37:52;96497.75;;;30.02;30.25
50384;BME280;36301;48.310;12.786;2023-07-08T15:40:21;96500.19;;;30.00;30.54
50384;BME280;36301;48.310;12.786;2023-07-08T15:42:53;96496.59;;;29.88;30.52
50384;BME280;36301;48.310;12.786;2023-07-08T15:45:35;96500.03;;;30.09;30.56
50384;BME280;36301;48.310;12.786;2023-07-08T15:48:04;96500.19;;;30.00;29.54
50384;BME280;36301;48.310;12.786;2023-07-08T15:50:31;96487.19;;;29.89;29.58
50384;BME280;36301;48.310;12.786;2023-07-08T15:52:58;96496.16;;;29.95;30.89
50384;BME280;36301;48.310;12.786;2023-07-08T15:55:29;96497.69;;;29.96;30.71
50384;BME280;36301;48.310;12.786;2023-07-08T15:58:00;96494.09;;;29.64;31.17
50384;BME280;36301;48.310;12.786;2023-07-08T16:00:30;96482.03;;;29.71;31.34
50384;BME280;36301;48.310;12.786;2023-07-08T16:03:13;96484.44;;;29.89;31.27
50384;BME280;36301;48.310;12.786;2023-07-08T16:05:43;96484.50;;;29.69;30.20
50384;BME280;36301;48.310;12.786;2023-07-08T16:08:09;96486.66;;;29.44;30.73
50384;BME280;36301;48.310;12.786;2023-07-08T16:10:36;96499.06;;;29.05;30.99
50384;BME280;36301;48.310;12.786;2023-07-08T16:13:04;96500.69;;;28.97;31.02
50384;BME280;36301;48.310;12.786;2023-07-08T16:15:33;96502.19;;;28.98;31.42
50384;BME280;36301;48.310;12.786;2023-07-08T16:18:01;96506.28;;;29.08;31.49
50384;BME280;36301;48.310;12.786;2023-07-08T16:20:29;96500.75;;;29.02;31.63
50384;BME280;36301;48.310;12.786;2023-07-08T16:22:56;96506.91;;;29.17;31.15
50384;BME280;36301;48.310;12.786;2023-07-08T16:25:35;96499.72;;;29.55;30.04
50384;BME280;36301;48.310;12.786;2023-07-08T16:28:04;96497.50;;;29.80;30.36
50384;BME280;36301;48.310;12.786;2023-07-08T16:30:32;96498.75;;;30.05;30.76
50384;BME280;36301;48.310;12.786;2023-07-08T16:32:59;96493.94;;;30.20;29.80
50384;BME280;36301;48.310;12.786;2023-07-08T16:35:26;96494.84;;;30.37;30.20
50384;BME280;36301;48.310;12.786;2023-07-08T16:37:53;96502.69;;;30.24;30.83
50384;BME280;36301;48.310;12.786;2023-07-08T16:40:25;96500.47;;;30.28;30.01
50384;BME280;36301;48.310;12.786;2023-07-08T16:42:55;96491.53;;;30.02;30.28
50384;BME280;36301;48.310;12.786;2023-07-08T16:45:23;96496.50;;;29.77;31.29
50384;BME280;36301;48.310;12.786;2023-07-08T16:47:50;96497.19;;;29.52;31.11
50384;BME280;36301;48.310;12.786;2023-07-08T16:50:19;96489.94;;;29.28;31.30